Terminal Aerodrome Forecast
Issued by NWS

Home | Current Version | Previous Version | Text Only | Print | Product List | Glossary On
Versions: 1 2 3 4 5 6 7 8 9 10 11 12 13 14
114
FTUS42 KGSP 260606 AAA
TAFAND
TAF AMD
KAND 260606Z 2606/2706 18004KT P6SM VCSH SCT070
      TEMPO 2609/2612 23003KT 5SM BR FEW250
     FM261400 25005KT P6SM FEW150
     FM261800 23007KT P6SM SCT045 PROB30 2621/2701 4SM -TSRA
      BKN060CB
     FM270200 21003KT P6SM SCT060=

USA.gov is the U.S. government's official web portal to all federal, state and local government web resources and services.